createdAt,value
2022-12-26T00:00:10.858Z,35.00
2022-12-26T00:01:10.773Z,37.80
2022-12-26T00:02:10.784Z,35.40
2022-12-26T00:03:10.840Z,33.90
2022-12-26T00:04:51.957Z,35.30
2022-12-26T00:05:10.672Z,33.60
2022-12-26T00:06:10.656Z,35.00
2022-12-26T00:07:10.633Z,34.90
2022-12-26T00:08:10.612Z,34.00
2022-12-26T00:09:10.583Z,34.70
2022-12-26T00:10:10.580Z,37.40
2022-12-26T00:11:10.532Z,36.80
2022-12-26T00:12:10.517Z,36.40
2022-12-26T00:13:37.631Z,36.30
2022-12-26T00:14:10.461Z,35.60
2022-12-26T00:15:10.454Z,33.80
2022-12-26T00:16:10.524Z,38.40
2022-12-26T00:17:10.383Z,35.80
2022-12-26T00:18:10.382Z,35.10
2022-12-26T00:19:10.342Z,36.20
2022-12-26T00:20:10.315Z,34.50
2022-12-26T00:21:10.289Z,34.10
2022-12-26T00:22:10.297Z,37.60
2022-12-26T00:23:10.238Z,38.50
2022-12-26T00:24:10.221Z,33.70
2022-12-26T00:25:10.195Z,37.10
2022-12-26T00:26:10.169Z,39.90
2022-12-26T00:27:10.140Z,38.20
2022-12-26T00:28:10.131Z,33.30
2022-12-26T00:29:10.089Z,33.10
2022-12-26T00:30:10.065Z,35.80
2022-12-26T00:31:10.137Z,38.60
2022-12-26T00:32:10.032Z,37.40
2022-12-26T00:33:09.991Z,35.30
2022-12-26T00:34:09.989Z,35.00
2022-12-26T00:35:09.939Z,36.70
2022-12-26T00:36:09.936Z,35.70
2022-12-26T00:37:09.900Z,34.10
2022-12-26T00:38:09.885Z,37.00
2022-12-26T00:39:09.845Z,36.10
2022-12-26T00:40:09.821Z,39.80
2022-12-26T00:41:09.798Z,35.60
2022-12-26T00:42:09.772Z,34.90
2022-12-26T00:43:09.781Z,34.90
2022-12-26T00:44:09.724Z,34.20
2022-12-26T00:45:09.697Z,36.00
2022-12-26T00:46:09.692Z,34.10
2022-12-26T00:47:09.720Z,35.90
2022-12-26T00:48:09.634Z,34.00
2022-12-26T00:49:09.603Z,36.30
2022-12-26T00:50:12.577Z,36.70
2022-12-26T00:51:09.552Z,34.40
2022-12-26T00:52:09.532Z,36.00
2022-12-26T00:53:09.508Z,36.10
2022-12-26T00:54:09.501Z,35.80
2022-12-26T00:55:09.474Z,35.60
2022-12-26T00:56:09.437Z,34.70
2022-12-26T00:57:09.416Z,39.50
2022-12-26T00:58:09.390Z,35.90
2022-12-26T00:59:09.354Z,32.70
2022-12-26T01:00:09.339Z,33.90
2022-12-26T01:01:09.486Z,35.50
2022-12-26T01:02:09.556Z,38.70
2022-12-26T01:03:09.297Z,39.90
2022-12-26T01:04:09.240Z,36.50
2022-12-26T01:05:09.208Z,35.40
2022-12-26T01:06:09.216Z,38.00
2022-12-26T01:07:09.159Z,37.10
2022-12-26T01:08:22.342Z,35.00
2022-12-26T01:09:09.110Z,41.60
2022-12-26T01:10:09.088Z,39.60
2022-12-26T01:11:09.068Z,32.80
2022-12-26T01:12:09.066Z,34.60
2022-12-26T01:13:09.019Z,36.20
2022-12-26T01:14:08.992Z,39.80
2022-12-26T01:15:08.968Z,34.20
2022-12-26T01:16:08.983Z,39.00
2022-12-26T01:17:08.922Z,38.50
2022-12-26T01:18:08.898Z,35.50
2022-12-26T01:19:08.871Z,37.60
2022-12-26T01:20:08.848Z,35.60
2022-12-26T01:21:08.818Z,35.50
2022-12-26T01:22:08.821Z,36.90
2022-12-26T01:23:08.802Z,39.00
2022-12-26T01:24:08.748Z,34.50
2022-12-26T01:25:08.724Z,36.80
2022-12-26T01:26:15.607Z,40.20
2022-12-26T01:27:08.671Z,37.10
2022-12-26T01:28:08.650Z,38.20
2022-12-26T01:29:08.622Z,38.30
2022-12-26T01:30:08.604Z,35.90
2022-12-26T01:31:08.642Z,34.20
2022-12-26T01:32:08.619Z,36.90
2022-12-26T01:33:08.539Z,39.70
2022-12-26T01:34:08.502Z,39.80
2022-12-26T01:35:08.479Z,39.50
2022-12-26T01:36:08.457Z,37.20
2022-12-26T01:37:08.426Z,37.10
2022-12-26T01:38:08.441Z,40.10
2022-12-26T01:39:08.380Z,37.20
2022-12-26T01:40:08.353Z,37.60
2022-12-26T01:41:08.333Z,37.60
2022-12-26T01:42:08.311Z,39.30
2022-12-26T01:43:08.282Z,37.60
2022-12-26T01:44:08.268Z,39.10
2022-12-26T01:45:08.234Z,39.50
2022-12-26T01:46:08.263Z,40.30
2022-12-26T01:47:08.179Z,38.80
2022-12-26T01:48:08.156Z,38.50
2022-12-26T01:49:08.132Z,39.10
2022-12-26T01:50:08.110Z,40.40
2022-12-26T01:51:08.085Z,40.20
2022-12-26T01:52:08.064Z,39.30
2022-12-26T01:53:08.038Z,41.20
2022-12-26T01:54:38.168Z,38.90
2022-12-26T01:55:07.986Z,42.70
2022-12-26T01:56:07.960Z,41.50
2022-12-26T01:57:07.945Z,37.60
2022-12-26T01:58:07.911Z,40.20
2022-12-26T01:59:07.899Z,41.50
2022-12-26T02:00:07.866Z,42.80
2022-12-26T02:01:07.938Z,40.90
2022-12-26T02:02:08.098Z,41.70
2022-12-26T02:03:07.918Z,40.10
2022-12-26T02:04:07.763Z,39.70
2022-12-26T02:05:07.793Z,40.30
2022-12-26T02:06:07.714Z,40.50
2022-12-26T02:07:07.699Z,39.30
2022-12-26T02:08:07.662Z,44.60
2022-12-26T02:09:07.639Z,43.10
2022-12-26T02:10:07.636Z,42.20
2022-12-26T02:11:07.592Z,45.10
2022-12-26T02:12:37.383Z,42.50
2022-12-26T02:13:07.545Z,42.40
2022-12-26T02:14:07.520Z,41.20
2022-12-26T02:15:07.494Z,42.70
2022-12-26T02:16:07.525Z,43.70
2022-12-26T02:17:07.446Z,44.40
2022-12-26T02:18:07.425Z,42.60
2022-12-26T02:19:07.395Z,45.00
2022-12-26T02:20:07.369Z,46.40
2022-12-26T02:21:07.348Z,42.70
2022-12-26T02:22:07.326Z,40.60
2022-12-26T02:23:07.311Z,43.70
2022-12-26T02:24:07.271Z,48.60
2022-12-26T02:25:07.253Z,44.50
2022-12-26T02:26:07.250Z,44.80
2022-12-26T02:27:07.206Z,45.60
2022-12-26T02:28:07.180Z,45.00
2022-12-26T02:29:07.163Z,46.20
2022-12-26T02:30:07.154Z,48.00
2022-12-26T02:31:07.105Z,46.40
2022-12-26T02:32:07.182Z,44.20
2022-12-26T02:33:07.063Z,49.90
2022-12-26T02:34:07.025Z,45.80
2022-12-26T02:35:07.005Z,46.90
2022-12-26T02:36:06.979Z,46.80
2022-12-26T02:37:06.951Z,43.00
2022-12-26T02:38:06.925Z,47.30
2022-12-26T02:39:45.183Z,46.10
2022-12-26T02:40:06.886Z,45.00
2022-12-26T02:41:06.867Z,48.20
2022-12-26T02:42:06.859Z,46.30
2022-12-26T02:43:06.817Z,49.70
2022-12-26T02:44:06.793Z,46.70
2022-12-26T02:45:06.758Z,47.80
2022-12-26T02:46:06.823Z,48.00
2022-12-26T02:47:06.713Z,49.50
2022-12-26T02:48:06.677Z,49.50
2022-12-26T02:49:06.663Z,48.50
2022-12-26T02:50:06.634Z,48.50
2022-12-26T02:51:06.614Z,49.30
2022-12-26T02:52:06.582Z,48.80
2022-12-26T02:53:06.563Z,52.40
2022-12-26T02:54:06.584Z,46.80
2022-12-26T02:55:06.515Z,53.10
2022-12-26T02:56:06.488Z,51.80
2022-12-26T02:57:06.457Z,47.20
2022-12-26T02:58:06.452Z,50.70
2022-12-26T02:59:06.417Z,51.40
2022-12-26T03:00:06.388Z,50.40
2022-12-26T03:01:06.432Z,49.00
2022-12-26T03:02:06.531Z,47.30
2022-12-26T03:03:06.352Z,47.60
2022-12-26T03:04:06.299Z,52.90
2022-12-26T03:05:06.266Z,47.90
2022-12-26T03:06:06.237Z,48.90
2022-12-26T03:07:06.217Z,46.80
2022-12-26T03:08:06.191Z,51.20
2022-12-26T03:09:06.169Z,48.20
2022-12-26T03:10:06.139Z,50.40
2022-12-26T03:11:06.115Z,48.30
2022-12-26T03:12:06.084Z,47.90
2022-12-26T03:13:06.070Z,49.30
2022-12-26T03:14:06.066Z,50.50
2022-12-26T03:15:06.098Z,45.80
2022-12-26T03:16:06.000Z,49.40
2022-12-26T03:17:06.070Z,46.00
2022-12-26T03:18:05.947Z,47.70
2022-12-26T03:19:05.940Z,48.20
2022-12-26T03:20:05.897Z,52.40
2022-12-26T03:21:05.868Z,49.00
2022-12-26T03:22:05.844Z,49.10
2022-12-26T03:23:05.820Z,50.50
2022-12-26T03:24:05.795Z,49.00
2022-12-26T03:25:05.772Z,49.30
2022-12-26T03:26:05.743Z,49.50
2022-12-26T03:27:05.723Z,47.20
2022-12-26T03:28:05.700Z,46.90
2022-12-26T03:29:05.679Z,47.30
2022-12-26T03:30:05.665Z,51.00
2022-12-26T03:31:05.724Z,49.70
2022-12-26T03:32:05.608Z,50.90
2022-12-26T03:33:05.581Z,52.80
2022-12-26T03:34:05.546Z,46.90
2022-12-26T03:35:05.522Z,47.00
2022-12-26T03:36:05.502Z,47.10
2022-12-26T03:37:05.476Z,49.60
2022-12-26T03:38:05.444Z,46.80
2022-12-26T03:39:05.438Z,48.60
2022-12-26T03:40:05.402Z,48.60
2022-12-26T03:41:05.385Z,46.50
2022-12-26T03:42:05.356Z,43.70
2022-12-26T03:43:05.329Z,41.10
2022-12-26T03:44:05.300Z,43.20
2022-12-26T03:45:05.282Z,44.50
2022-12-26T03:46:05.341Z,45.00
2022-12-26T03:47:05.225Z,41.50
2022-12-26T03:48:05.206Z,43.90
2022-12-26T03:49:05.178Z,44.30
2022-12-26T03:50:05.154Z,42.10
2022-12-26T03:51:05.131Z,41.70
2022-12-26T03:52:05.100Z,42.00
2022-12-26T03:53:05.083Z,39.40
2022-12-26T03:54:05.052Z,42.50
2022-12-26T03:55:05.029Z,39.00
2022-12-26T03:56:05.006Z,41.20
2022-12-26T03:57:04.991Z,38.70
2022-12-26T03:58:04.968Z,39.50
2022-12-26T03:59:04.930Z,40.80
2022-12-26T04:00:04.904Z,40.40
2022-12-26T04:01:04.994Z,37.60
2022-12-26T04:02:04.998Z,38.90
2022-12-26T04:03:04.831Z,36.10
2022-12-26T04:04:04.940Z,40.00
2022-12-26T04:05:04.796Z,34.90
2022-12-26T04:06:04.756Z,39.20
2022-12-26T04:07:04.739Z,36.00
2022-12-26T04:08:04.703Z,36.10
2022-12-26T04:09:04.678Z,38.30
2022-12-26T04:10:04.652Z,35.50
2022-12-26T04:11:04.630Z,35.00
2022-12-26T04:12:04.620Z,36.10
2022-12-26T04:13:04.590Z,35.10
2022-12-26T04:14:04.561Z,34.50
2022-12-26T04:15:04.540Z,36.00
2022-12-26T04:16:04.561Z,35.80
2022-12-26T04:17:04.487Z,33.80
2022-12-26T04:18:04.484Z,36.40
2022-12-26T04:19:04.440Z,33.40
2022-12-26T04:20:04.410Z,34.50
2022-12-26T04:21:04.386Z,36.10
2022-12-26T04:22:04.362Z,36.50
2022-12-26T04:23:04.341Z,36.70
2022-12-26T04:24:04.307Z,36.80
2022-12-26T04:25:04.283Z,36.20
2022-12-26T04:26:04.277Z,36.10
2022-12-26T04:27:04.240Z,37.50
2022-12-26T04:28:04.206Z,35.60
2022-12-26T04:29:04.191Z,36.40
2022-12-26T04:30:04.157Z,35.90
2022-12-26T04:31:04.196Z,36.80
2022-12-26T04:32:04.113Z,35.80
2022-12-26T04:33:04.088Z,38.60
2022-12-26T04:34:04.080Z,33.60
2022-12-26T04:35:04.038Z,34.30
2022-12-26T04:36:04.007Z,37.80
2022-12-26T04:37:03.989Z,33.70
2022-12-26T04:38:04.004Z,36.70
2022-12-26T04:39:03.941Z,35.60
2022-12-26T04:40:03.909Z,31.10
2022-12-26T04:41:03.890Z,33.70
2022-12-26T04:42:03.865Z,35.10
2022-12-26T04:43:47.202Z,33.90
2022-12-26T04:44:03.808Z,36.40
2022-12-26T04:45:03.792Z,34.00
2022-12-26T04:46:03.876Z,35.30
2022-12-26T04:47:03.738Z,33.70
2022-12-26T04:48:03.716Z,33.40
2022-12-26T04:49:03.705Z,31.00
2022-12-26T04:50:03.698Z,31.80
2022-12-26T04:51:03.641Z,32.00
2022-12-26T04:52:03.629Z,33.10
2022-12-26T04:53:03.613Z,30.60
2022-12-26T04:54:03.567Z,29.30
2022-12-26T04:55:03.544Z,29.70
2022-12-26T04:56:03.513Z,28.50
2022-12-26T04:57:03.490Z,28.60
2022-12-26T04:58:03.461Z,28.00
2022-12-26T04:59:03.448Z,29.20
2022-12-26T05:00:03.430Z,28.20
2022-12-26T05:01:03.436Z,29.60
2022-12-26T05:02:03.464Z,26.90
2022-12-26T05:03:03.400Z,27.30
2022-12-26T05:04:03.375Z,28.30
2022-12-26T05:05:03.291Z,28.30
2022-12-26T05:06:03.288Z,26.90
2022-12-26T05:07:03.255Z,28.60
2022-12-26T05:08:03.236Z,28.40
2022-12-26T05:09:03.204Z,25.60
2022-12-26T05:10:03.160Z,27.10
2022-12-26T05:11:03.147Z,27.00
2022-12-26T05:12:03.114Z,28.60
2022-12-26T05:13:03.093Z,28.50
2022-12-26T05:14:03.064Z,27.10
2022-12-26T05:15:03.041Z,28.90
2022-12-26T05:16:03.075Z,27.50
2022-12-26T05:17:02.991Z,26.60
2022-12-26T05:18:02.967Z,26.60
2022-12-26T05:19:02.952Z,28.00
2022-12-26T05:20:02.912Z,29.30
2022-12-26T05:21:02.892Z,25.40
2022-12-26T05:22:02.892Z,26.90
2022-12-26T05:23:02.840Z,24.50
2022-12-26T05:24:02.816Z,28.30
2022-12-26T05:25:02.797Z,26.00
2022-12-26T05:26:02.768Z,28.20
2022-12-26T05:27:02.752Z,26.50
2022-12-26T05:28:02.725Z,25.20
2022-12-26T05:29:02.695Z,25.50
2022-12-26T05:30:02.681Z,26.40
2022-12-26T05:31:02.705Z,25.80
2022-12-26T05:32:02.642Z,23.80
2022-12-26T05:33:02.589Z,24.90
2022-12-26T05:34:02.585Z,24.60
2022-12-26T05:35:02.544Z,25.90
2022-12-26T05:36:02.516Z,24.20
2022-12-26T05:37:02.493Z,26.10
2022-12-26T05:38:02.489Z,25.10
2022-12-26T05:39:02.445Z,22.60
2022-12-26T05:40:02.415Z,22.00
2022-12-26T05:41:02.393Z,21.90
2022-12-26T05:42:02.364Z,21.20
2022-12-26T05:43:02.345Z,21.90
2022-12-26T05:44:02.316Z,21.00
2022-12-26T05:45:02.305Z,22.70
2022-12-26T05:46:02.301Z,22.20
2022-12-26T05:47:02.376Z,21.80
2022-12-26T05:48:02.256Z,21.50
2022-12-26T05:49:02.195Z,21.30
2022-12-26T05:50:02.165Z,20.00
2022-12-26T05:51:02.165Z,21.10
2022-12-26T05:52:02.118Z,20.50
2022-12-26T05:53:02.104Z,21.20
2022-12-26T05:54:02.098Z,23.50
2022-12-26T05:55:02.048Z,21.40
2022-12-26T05:56:02.044Z,22.10
2022-12-26T05:57:01.997Z,21.70
2022-12-26T05:58:01.993Z,20.40
2022-12-26T05:59:01.963Z,21.80
2022-12-26T06:00:01.924Z,21.40
2022-12-26T06:01:01.894Z,22.40
2022-12-26T06:02:02.092Z,20.70
2022-12-26T06:03:01.964Z,20.00
2022-12-26T06:04:02.057Z,20.30
2022-12-26T06:05:01.794Z,20.80
2022-12-26T06:06:01.777Z,19.60
2022-12-26T06:07:01.746Z,20.70
2022-12-26T06:08:01.722Z,20.50
2022-12-26T06:09:01.695Z,19.40
2022-12-26T06:10:01.696Z,19.70
2022-12-26T06:11:01.643Z,20.50
2022-12-26T06:12:01.628Z,21.20
2022-12-26T06:13:01.611Z,20.20
2022-12-26T06:14:01.591Z,20.40
2022-12-26T06:15:01.551Z,18.90
2022-12-26T06:16:01.587Z,20.00
2022-12-26T06:17:01.501Z,20.10
2022-12-26T06:18:01.486Z,19.30
2022-12-26T06:19:01.445Z,18.50
2022-12-26T06:20:01.425Z,17.70
2022-12-26T06:21:01.394Z,18.40
2022-12-26T06:22:01.401Z,18.00
2022-12-26T06:23:01.356Z,17.70
2022-12-26T06:24:01.327Z,19.00
2022-12-26T06:25:01.297Z,17.50
2022-12-26T06:26:01.295Z,18.30
2022-12-26T06:27:01.253Z,17.90
2022-12-26T06:28:01.229Z,18.20
2022-12-26T06:29:01.196Z,16.70
2022-12-26T06:30:01.208Z,17.50
2022-12-26T06:31:01.239Z,17.30
2022-12-26T06:32:01.183Z,17.10
2022-12-26T06:33:01.100Z,17.30
2022-12-26T06:34:01.078Z,17.00
2022-12-26T06:35:01.045Z,16.20
2022-12-26T06:36:01.022Z,16.80
2022-12-26T06:37:01.012Z,18.10
2022-12-26T06:38:00.971Z,16.80
2022-12-26T06:39:00.950Z,16.60
2022-12-26T06:40:00.928Z,16.00
2022-12-26T06:41:00.896Z,16.70
2022-12-26T06:42:00.907Z,17.00
2022-12-26T06:43:00.856Z,15.80
2022-12-26T06:44:00.825Z,16.90
2022-12-26T06:45:00.794Z,16.20
2022-12-26T06:46:00.782Z,16.20
2022-12-26T06:47:00.792Z,15.40
2022-12-26T06:48:00.728Z,15.70
2022-12-26T06:49:00.697Z,15.80
2022-12-26T06:50:00.671Z,16.00
2022-12-26T06:51:00.646Z,15.80
2022-12-26T06:52:00.629Z,16.60
2022-12-26T06:53:00.599Z,16.50
2022-12-26T06:54:00.578Z,17.20
2022-12-26T06:55:00.544Z,16.50
2022-12-26T06:56:00.523Z,15.80
2022-12-26T06:57:00.516Z,16.10
2022-12-26T06:58:00.488Z,15.40
2022-12-26T06:59:00.477Z,16.50
2022-12-26T07:00:00.418Z,15.40
2022-12-26T07:01:00.510Z,15.60
2022-12-26T07:02:00.509Z,15.20
2022-12-26T07:03:00.391Z,15.40
2022-12-26T07:04:00.335Z,15.20
2022-12-26T07:05:00.297Z,15.30
2022-12-26T07:06:00.277Z,14.00
2022-12-26T07:07:00.260Z,16.80
2022-12-26T07:08:00.223Z,14.20
2022-12-26T07:09:00.194Z,14.70
2022-12-26T07:10:00.183Z,15.30
2022-12-26T07:11:00.151Z,15.60
2022-12-26T07:12:00.126Z,14.60
2022-12-26T07:13:00.122Z,15.30
2022-12-26T07:14:00.100Z,15.30
2022-12-26T07:15:01.941Z,14.40
2022-12-26T07:16:00.125Z,15.20
2022-12-26T07:17:00.000Z,14.90
2022-12-26T07:17:59.976Z,14.20
2022-12-26T07:18:59.952Z,15.30
2022-12-26T07:19:59.932Z,15.60
2022-12-26T07:20:59.896Z,15.60
2022-12-26T07:21:59.877Z,15.00
2022-12-26T07:22:59.852Z,15.50
2022-12-26T07:23:59.827Z,15.20
2022-12-26T07:24:59.801Z,14.30
2022-12-26T07:25:59.778Z,15.50
2022-12-26T07:26:59.762Z,14.60
2022-12-26T07:27:59.730Z,15.30
2022-12-26T07:28:59.700Z,14.40
2022-12-26T07:29:59.696Z,14.70
2022-12-26T07:30:59.646Z,15.10
2022-12-26T07:31:59.709Z,15.50
2022-12-26T07:32:59.601Z,15.60
2022-12-26T07:33:59.582Z,14.60
2022-12-26T07:34:59.546Z,14.90
2022-12-26T07:35:59.531Z,15.20
2022-12-26T07:36:59.497Z,15.00
2022-12-26T07:37:59.476Z,13.90
2022-12-26T07:38:59.447Z,15.50
2022-12-26T07:39:59.628Z,14.80
2022-12-26T07:40:59.397Z,14.50
2022-12-26T07:41:59.487Z,13.90
2022-12-26T07:42:59.356Z,15.20
2022-12-26T07:43:59.341Z,14.80
2022-12-26T07:44:59.334Z,14.40
2022-12-26T07:45:59.424Z,15.10
2022-12-26T07:46:59.258Z,15.40
2022-12-26T07:47:59.237Z,16.40
2022-12-26T07:48:59.229Z,16.00
2022-12-26T07:49:59.178Z,17.20
2022-12-26T07:50:59.152Z,18.00
2022-12-26T07:51:59.147Z,17.90
2022-12-26T07:52:59.095Z,17.40
2022-12-26T07:53:59.076Z,17.90
2022-12-26T07:54:59.048Z,17.50
2022-12-26T07:55:59.029Z,18.20
2022-12-26T07:57:21.707Z,17.60
2022-12-26T07:57:58.980Z,18.70
2022-12-26T07:58:58.945Z,19.20
2022-12-26T07:59:58.932Z,19.80
2022-12-26T08:00:58.949Z,19.80
2022-12-26T08:01:59.094Z,19.50
2022-12-26T08:03:06.459Z,20.10
2022-12-26T08:03:58.891Z,20.70
2022-12-26T08:04:58.795Z,20.10
2022-12-26T08:05:58.781Z,20.10
2022-12-26T08:06:58.745Z,20.50
2022-12-26T08:07:58.731Z,20.60
2022-12-26T08:08:58.692Z,21.30
2022-12-26T08:09:58.682Z,20.40
2022-12-26T08:10:58.663Z,19.60
2022-12-26T08:11:58.623Z,19.20
2022-12-26T08:12:58.592Z,19.50
2022-12-26T08:13:58.572Z,19.70
2022-12-26T08:14:58.546Z,20.20
2022-12-26T08:15:58.523Z,18.70
2022-12-26T08:16:58.629Z,18.10
2022-12-26T08:17:58.506Z,18.70
2022-12-26T08:18:58.437Z,17.90
2022-12-26T08:19:58.425Z,18.90
2022-12-26T08:20:58.393Z,17.60
2022-12-26T08:21:58.371Z,18.10
2022-12-26T08:23:58.327Z,16.50
2022-12-26T08:24:58.299Z,16.50
2022-12-26T08:25:58.277Z,16.40
2022-12-26T08:26:58.256Z,15.60
2022-12-26T08:27:58.229Z,15.70
2022-12-26T08:28:58.191Z,15.30
2022-12-26T08:29:58.188Z,15.70
2022-12-26T08:30:58.145Z,14.90
2022-12-26T08:31:58.122Z,13.50
2022-12-26T08:32:58.090Z,14.50
2022-12-26T08:33:58.098Z,14.00
2022-12-26T08:34:58.038Z,14.70
2022-12-26T08:35:58.020Z,13.70
2022-12-26T08:36:57.987Z,13.70
2022-12-26T08:37:57.970Z,13.50
2022-12-26T08:38:57.938Z,14.50
2022-12-26T08:39:57.918Z,14.10
2022-12-26T08:40:57.888Z,14.40
2022-12-26T08:41:57.867Z,12.90
2022-12-26T08:43:21.568Z,13.00
2022-12-26T08:44:57.788Z,10.90
2022-12-26T08:45:57.814Z,11.10
2022-12-26T08:46:57.744Z,10.90
2022-12-26T08:47:57.718Z,11.40
2022-12-26T08:48:57.689Z,12.10
2022-12-26T08:49:57.688Z,10.50
2022-12-26T08:50:57.642Z,9.90
2022-12-26T08:51:57.619Z,11.80
2022-12-26T08:52:57.588Z,10.40
2022-12-26T08:53:57.571Z,10.10
2022-12-26T08:54:57.539Z,10.00
2022-12-26T08:55:57.517Z,12.20
2022-12-26T08:56:57.492Z,13.20
2022-12-26T08:57:57.518Z,10.10
2022-12-26T08:58:57.445Z,9.90
2022-12-26T08:59:57.421Z,9.40
2022-12-26T09:00:57.434Z,9.80
2022-12-26T09:01:57.532Z,8.70
2022-12-26T09:02:57.444Z,10.60
2022-12-26T09:03:57.335Z,8.40
2022-12-26T09:04:57.287Z,8.40
2022-12-26T09:05:58.791Z,9.00
2022-12-26T09:06:57.245Z,10.60
2022-12-26T09:07:57.217Z,11.00
2022-12-26T09:08:57.190Z,9.80
2022-12-26T09:09:57.162Z,8.60
2022-12-26T09:10:57.147Z,7.70
2022-12-26T09:11:57.113Z,7.70
2022-12-26T09:12:57.113Z,9.60
2022-12-26T09:13:57.095Z,9.90
2022-12-26T09:14:57.037Z,7.40
2022-12-26T09:15:57.018Z,10.50
2022-12-26T09:16:57.036Z,7.50
2022-12-26T09:17:56.963Z,9.80
2022-12-26T09:18:56.940Z,8.30
2022-12-26T09:19:56.918Z,8.70
2022-12-26T09:20:56.889Z,8.50
2022-12-26T09:21:56.883Z,6.70
2022-12-26T09:22:56.836Z,7.80
2022-12-26T09:23:56.819Z,8.50
2022-12-26T09:24:56.784Z,6.70
2022-12-26T09:25:56.761Z,6.90
2022-12-26T09:26:56.732Z,8.70
2022-12-26T09:27:59.355Z,7.90
2022-12-26T09:28:56.701Z,9.30
2022-12-26T09:29:56.681Z,8.10
2022-12-26T09:30:56.662Z,6.80
2022-12-26T09:31:56.615Z,8.30
2022-12-26T09:32:56.583Z,6.80
2022-12-26T09:33:56.576Z,7.40
2022-12-26T09:34:56.537Z,8.30
2022-12-26T09:36:01.563Z,8.00
2022-12-26T09:36:56.485Z,6.30
2022-12-26T09:37:56.493Z,7.40
2022-12-26T09:38:56.438Z,7.50
2022-12-26T09:39:56.425Z,6.30
2022-12-26T09:40:56.392Z,7.70
2022-12-26T09:41:56.365Z,7.80
2022-12-26T09:42:56.345Z,7.00
2022-12-26T09:43:56.316Z,7.70
2022-12-26T09:44:56.289Z,7.60
2022-12-26T09:45:56.338Z,6.70
2022-12-26T09:46:56.235Z,7.00
2022-12-26T09:47:56.209Z,7.40
2022-12-26T09:48:56.187Z,7.10
2022-12-26T09:49:56.171Z,7.00
2022-12-26T09:50:56.135Z,8.60
2022-12-26T09:51:56.114Z,6.00
2022-12-26T09:52:56.085Z,6.90
2022-12-26T09:53:56.082Z,6.90
2022-12-26T09:54:56.030Z,8.00
2022-12-26T09:55:56.029Z,5.60
2022-12-26T09:57:05.380Z,8.50
2022-12-26T09:57:55.963Z,6.00
2022-12-26T09:58:55.934Z,5.80
2022-12-26T09:59:55.916Z,6.00
2022-12-26T10:00:55.879Z,6.60
2022-12-26T10:01:55.941Z,7.80
2022-12-26T10:02:55.839Z,7.20
2022-12-26T10:03:55.821Z,6.10
2022-12-26T10:04:55.863Z,5.10
2022-12-26T10:05:55.765Z,6.30
2022-12-26T10:06:55.747Z,6.90
2022-12-26T10:07:55.705Z,6.50
2022-12-26T10:08:55.683Z,7.60
2022-12-26T10:09:55.688Z,7.50
2022-12-26T10:10:55.632Z,6.70
2022-12-26T10:11:55.616Z,5.40
2022-12-26T10:12:55.584Z,5.70
2022-12-26T10:13:55.559Z,6.30
2022-12-26T10:14:55.535Z,7.90
2022-12-26T10:15:55.560Z,6.20
2022-12-26T10:16:55.486Z,10.20
2022-12-26T10:17:55.459Z,8.20
2022-12-26T10:18:55.441Z,6.00
2022-12-26T10:19:55.413Z,7.10
2022-12-26T10:20:55.387Z,7.20
2022-12-26T10:21:55.364Z,7.00
2022-12-26T10:22:55.342Z,6.60
2022-12-26T10:23:55.309Z,6.10
2022-12-26T10:24:55.293Z,5.60
2022-12-26T10:25:55.275Z,6.20
2022-12-26T10:26:55.240Z,8.00
2022-12-26T10:27:55.208Z,7.00
2022-12-26T10:28:55.188Z,7.10
2022-12-26T10:29:55.162Z,5.80
2022-12-26T10:30:55.279Z,6.30
2022-12-26T10:31:55.123Z,6.30
2022-12-26T10:32:55.091Z,10.90
2022-12-26T10:33:55.066Z,9.30
2022-12-26T10:34:55.055Z,8.20
2022-12-26T10:35:55.013Z,6.50
2022-12-26T10:36:54.988Z,6.70
2022-12-26T10:37:54.969Z,7.60
2022-12-26T10:38:54.969Z,8.20
2022-12-26T10:39:54.927Z,6.50
2022-12-26T10:40:54.892Z,7.30
2022-12-26T10:41:54.891Z,9.70
2022-12-26T10:42:54.841Z,8.10
2022-12-26T10:43:54.815Z,7.60
2022-12-26T10:44:54.791Z,6.70
2022-12-26T10:45:54.767Z,9.80
2022-12-26T10:46:54.757Z,8.70
2022-12-26T10:47:54.715Z,7.00
2022-12-26T10:48:54.700Z,9.20
2022-12-26T10:49:54.664Z,7.20
2022-12-26T10:50:54.642Z,8.20
2022-12-26T10:51:54.635Z,7.10
2022-12-26T10:52:54.596Z,8.90
2022-12-26T10:53:54.568Z,6.00
2022-12-26T10:55:27.467Z,5.40
2022-12-26T10:55:54.515Z,7.10
2022-12-26T10:56:54.493Z,7.20
2022-12-26T10:57:54.479Z,5.80
2022-12-26T10:58:54.446Z,5.90
2022-12-26T10:59:54.509Z,5.70
2022-12-26T11:00:54.392Z,4.90
2022-12-26T11:01:54.444Z,7.30
2022-12-26T11:02:54.525Z,6.80
2022-12-26T11:03:54.402Z,7.60
2022-12-26T11:05:15.631Z,7.40
2022-12-26T11:06:07.652Z,5.60
2022-12-26T11:06:54.242Z,7.80
2022-12-26T11:07:54.245Z,6.60
2022-12-26T11:08:54.186Z,7.80
2022-12-26T11:09:54.176Z,7.80
2022-12-26T11:10:54.157Z,7.70
2022-12-26T11:11:54.133Z,6.40
2022-12-26T11:12:54.110Z,5.20
2022-12-26T11:14:00.950Z,7.00
2022-12-26T11:14:54.044Z,6.90
2022-12-26T11:15:54.120Z,7.30
2022-12-26T11:16:53.996Z,8.00
2022-12-26T11:17:53.969Z,7.60
2022-12-26T11:18:53.943Z,5.70
2022-12-26T11:19:53.915Z,7.00
2022-12-26T11:20:53.893Z,8.50
2022-12-26T11:21:53.867Z,5.90
2022-12-26T11:22:53.846Z,5.50
2022-12-26T11:23:53.819Z,6.00
2022-12-26T11:24:53.793Z,6.00
2022-12-26T11:25:53.766Z,6.10
2022-12-26T11:26:53.744Z,7.20
2022-12-26T11:27:53.732Z,8.80
2022-12-26T11:28:53.696Z,6.90
2022-12-26T11:29:53.808Z,7.50
2022-12-26T11:30:53.701Z,6.70
2022-12-26T11:31:53.618Z,5.00
2022-12-26T11:32:53.596Z,7.60
2022-12-26T11:33:53.566Z,6.50
2022-12-26T11:34:53.547Z,6.30
2022-12-26T11:35:53.518Z,7.70
2022-12-26T11:36:53.500Z,6.10
2022-12-26T11:37:53.467Z,7.40
2022-12-26T11:38:53.445Z,6.30
2022-12-26T11:39:53.428Z,5.70
2022-12-26T11:40:53.399Z,8.60
2022-12-26T11:41:53.394Z,6.20
2022-12-26T11:42:53.349Z,7.10
2022-12-26T11:43:53.330Z,6.30
2022-12-26T11:44:53.301Z,6.50
2022-12-26T11:45:53.344Z,6.20
2022-12-26T11:46:53.324Z,6.00
2022-12-26T11:47:53.218Z,8.80
2022-12-26T11:48:53.199Z,5.20
2022-12-26T11:49:53.184Z,5.70
2022-12-26T11:50:53.159Z,6.80
2022-12-26T11:51:58.738Z,5.60
2022-12-26T11:52:53.108Z,4.90
2022-12-26T11:53:53.077Z,5.70
2022-12-26T11:54:53.053Z,6.30
2022-12-26T11:55:53.028Z,7.90
2022-12-26T11:56:53.007Z,6.80
2022-12-26T11:57:56.913Z,6.30
2022-12-26T11:58:52.952Z,6.30
2022-12-26T11:59:52.938Z,5.70
2022-12-26T12:00:52.904Z,6.10
2022-12-26T12:01:52.956Z,7.20
2022-12-26T12:02:52.895Z,6.20
2022-12-26T12:03:52.894Z,6.80
2022-12-26T12:04:52.814Z,5.90
2022-12-26T12:05:52.777Z,5.00
2022-12-26T12:06:52.755Z,6.20
2022-12-26T12:07:52.726Z,6.30
2022-12-26T12:08:52.711Z,5.80
2022-12-26T12:09:52.684Z,6.00
2022-12-26T12:10:52.655Z,8.20
2022-12-26T12:11:52.631Z,6.40
2022-12-26T12:12:52.611Z,5.80
2022-12-26T12:13:52.576Z,6.50
2022-12-26T12:14:54.730Z,5.90
2022-12-26T12:15:52.528Z,7.40
2022-12-26T12:16:52.572Z,6.90
2022-12-26T12:17:52.510Z,5.60
2022-12-26T12:18:52.461Z,5.00
2022-12-26T12:19:52.431Z,5.30
2022-12-26T12:20:52.406Z,6.40
2022-12-26T12:21:52.382Z,6.30
2022-12-26T12:22:52.357Z,5.90
2022-12-26T12:23:52.339Z,6.70
2022-12-26T12:24:52.309Z,7.10
2022-12-26T12:25:52.277Z,5.40
2022-12-26T12:26:56.658Z,6.40
2022-12-26T12:27:52.243Z,6.70
2022-12-26T12:28:52.217Z,6.50
2022-12-26T12:29:52.190Z,7.40
2022-12-26T12:30:52.164Z,8.00
2022-12-26T12:31:52.163Z,6.30
2022-12-26T12:32:57.027Z,7.70
2022-12-26T12:33:52.108Z,5.90
2022-12-26T12:34:52.063Z,5.50
2022-12-26T12:35:52.031Z,6.00
2022-12-26T12:36:52.012Z,8.20
2022-12-26T12:37:51.986Z,5.10
2022-12-26T12:38:56.328Z,5.90
2022-12-26T12:39:51.939Z,5.50
2022-12-26T12:40:51.912Z,7.20
2022-12-26T12:41:51.893Z,8.60
2022-12-26T12:42:51.866Z,7.00
2022-12-26T12:43:51.832Z,7.40
2022-12-26T12:44:56.594Z,5.50
2022-12-26T12:45:51.891Z,7.80
2022-12-26T12:46:51.762Z,6.50
2022-12-26T12:47:51.737Z,7.80
2022-12-26T12:48:51.728Z,8.20
2022-12-26T12:49:51.708Z,8.10
2022-12-26T12:50:56.724Z,7.70
2022-12-26T12:51:51.638Z,8.30
2022-12-26T12:52:51.619Z,8.30
2022-12-26T12:53:51.608Z,6.80
2022-12-26T12:54:51.567Z,8.70
2022-12-26T12:55:51.532Z,8.30
2022-12-26T12:56:51.516Z,8.30
2022-12-26T12:57:51.490Z,10.70
2022-12-26T12:58:51.460Z,12.30
2022-12-26T12:59:51.431Z,8.90
2022-12-26T13:00:51.417Z,9.80
2022-12-26T13:01:51.618Z,9.80